sensor_id;sensor_type;location;lat;lon;timestamp;temperature;humidity
10400;DHT22;10031;51.180;17.168;2022-10-17T00:04:11;9.40;99.90
10400;DHT22;10031;51.180;17.168;2022-10-17T00:06:37;9.70;99.90
10400;DHT22;10031;51.180;17.168;2022-10-17T00:16:29;9.60;99.90
10400;DHT22;10031;51.180;17.168;2022-10-17T00:21:22;9.20;99.90
10400;DHT22;10031;51.180;17.168;2022-10-17T00:23:49;9.10;99.90
10400;DHT22;10031;51.180;17.168;2022-10-17T00:26:15;9.10;99.90
10400;DHT22;10031;51.180;17.168;2022-10-17T00:33:34;9.30;99.90
10400;DHT22;10031;51.180;17.168;2022-10-17T00:36:11;9.90;99.90
10400;DHT22;10031;51.180;17.168;2022-10-17T00:38:41;9.50;99.90
10400;DHT22;10031;51.180;17.168;2022-10-17T00:41:09;9.50;99.90
10400;DHT22;10031;51.180;17.168;2022-10-17T00:43:57;9.60;99.90
10400;DHT22;10031;51.180;17.168;2022-10-17T00:46:27;9.40;99.90
10400;DHT22;10031;51.180;17.168;2022-10-17T00:48:55;9.10;99.90
10400;DHT22;10031;51.180;17.168;2022-10-17T00:51:29;9.10;99.90
10400;DHT22;10031;51.180;17.168;2022-10-17T00:53:57;9.20;99.90
10400;DHT22;10031;51.180;17.168;2022-10-17T01:03:42;9.40;99.90
10400;DHT22;10031;51.180;17.168;2022-10-17T01:06:08;9.40;99.90
10400;DHT22;10031;51.180;17.168;2022-10-17T01:08:33;9.40;99.90
10400;DHT22;10031;51.180;17.168;2022-10-17T01:11:21;9.20;99.90
10400;DHT22;10031;51.180;17.168;2022-10-17T01:14:12;9.30;99.90
10400;DHT22;10031;51.180;17.168;2022-10-17T01:19:18;8.80;99.90
10400;DHT22;10031;51.180;17.168;2022-10-17T01:22:00;8.90;99.90
10400;DHT22;10031;51.180;17.168;2022-10-17T01:24:48;9.00;99.90
10400;DHT22;10031;51.180;17.168;2022-10-17T01:32:45;9.10;99.90
10400;DHT22;10031;51.180;17.168;2022-10-17T01:38:57;9.00;99.90
10400;DHT22;10031;51.180;17.168;2022-10-17T01:41:38;8.90;99.90
10400;DHT22;10031;51.180;17.168;2022-10-17T01:44:38;8.90;99.90
10400;DHT22;10031;51.180;17.168;2022-10-17T01:47:08;8.80;99.90
10400;DHT22;10031;51.180;17.168;2022-10-17T01:49:37;9.20;99.90
10400;DHT22;10031;51.180;17.168;2022-10-17T01:52:26;8.90;99.90
10400;DHT22;10031;51.180;17.168;2022-10-17T01:55:29;8.90;99.90
10400;DHT22;10031;51.180;17.168;2022-10-17T01:58:02;8.90;99.90
10400;DHT22;10031;51.180;17.168;2022-10-17T02:00:30;8.90;99.90
10400;DHT22;10031;51.180;17.168;2022-10-17T02:03:04;8.80;99.90
10400;DHT22;10031;51.180;17.168;2022-10-17T02:05:34;9.70;99.90
10400;DHT22;10031;51.180;17.168;2022-10-17T02:10:38;8.90;99.90
10400;DHT22;10031;51.180;17.168;2022-10-17T02:18:58;8.80;99.90
10400;DHT22;10031;51.180;17.168;2022-10-17T02:21:35;8.80;99.90
10400;DHT22;10031;51.180;17.168;2022-10-17T02:27:11;8.70;99.90
10400;DHT22;10031;51.180;17.168;2022-10-17T02:29:46;8.70;99.90
10400;DHT22;10031;51.180;17.168;2022-10-17T02:32:24;8.90;99.90
10400;DHT22;10031;51.180;17.168;2022-10-17T02:34:54;8.90;99.90
10400;DHT22;10031;51.180;17.168;2022-10-17T02:37:26;8.70;99.90
10400;DHT22;10031;51.180;17.168;2022-10-17T02:39:54;8.50;99.90
10400;DHT22;10031;51.180;17.168;2022-10-17T02:42:22;8.40;99.90
10400;DHT22;10031;51.180;17.168;2022-10-17T02:44:49;8.30;99.90
10400;DHT22;10031;51.180;17.168;2022-10-17T02:47:25;8.50;99.90
10400;DHT22;10031;51.180;17.168;2022-10-17T02:49:54;8.70;99.90
10400;DHT22;10031;51.180;17.168;2022-10-17T02:52:36;9.00;99.90
10400;DHT22;10031;51.180;17.168;2022-10-17T02:55:27;8.80;99.90
10400;DHT22;10031;51.180;17.168;2022-10-17T02:57:57;8.80;99.90
10400;DHT22;10031;51.180;17.168;2022-10-17T03:00:25;8.40;99.90
10400;DHT22;10031;51.180;17.168;2022-10-17T03:02:53;10.20;99.90
10400;DHT22;10031;51.180;17.168;2022-10-17T03:05:28;8.70;99.90
10400;DHT22;10031;51.180;17.168;2022-10-17T03:07:55;8.80;99.90
10400;DHT22;10031;51.180;17.168;2022-10-17T03:17:43;8.70;99.90
10400;DHT22;10031;51.180;17.168;2022-10-17T03:20:08;8.70;99.90
10400;DHT22;10031;51.180;17.168;2022-10-17T03:27:26;8.70;99.90
10400;DHT22;10031;51.180;17.168;2022-10-17T03:32:18;8.60;99.90
10400;DHT22;10031;51.180;17.168;2022-10-17T03:44:28;8.50;99.90
10400;DHT22;10031;51.180;17.168;2022-10-17T03:46:53;8.60;99.90
10400;DHT22;10031;51.180;17.168;2022-10-17T03:51:45;8.30;99.90
10400;DHT22;10031;51.180;17.168;2022-10-17T03:56:36;8.20;99.90
10400;DHT22;10031;51.180;17.168;2022-10-17T03:59:02;7.70;99.90
10400;DHT22;10031;51.180;17.168;2022-10-17T04:03:56;7.90;99.90
10400;DHT22;10031;51.180;17.168;2022-10-17T04:06:23;8.10;99.90
10400;DHT22;10031;51.180;17.168;2022-10-17T04:11:19;8.20;99.90
10400;DHT22;10031;51.180;17.168;2022-10-17T04:16:14;8.10;99.90
10400;DHT22;10031;51.180;17.168;2022-10-17T04:25:59;7.60;99.90
10400;DHT22;10031;51.180;17.168;2022-10-17T04:28:27;7.70;99.90
10400;DHT22;10031;51.180;17.168;2022-10-17T04:30:58;7.80;99.90
10400;DHT22;10031;51.180;17.168;2022-10-17T04:36:09;7.50;99.90
10400;DHT22;10031;51.180;17.168;2022-10-17T04:38:37;7.40;99.90
10400;DHT22;10031;51.180;17.168;2022-10-17T04:41:05;7.40;99.90
10400;DHT22;10031;51.180;17.168;2022-10-17T04:46:04;7.50;99.90
10400;DHT22;10031;51.180;17.168;2022-10-17T04:50:58;7.50;99.90
10400;DHT22;10031;51.180;17.168;2022-10-17T04:53:27;7.40;99.90
10400;DHT22;10031;51.180;17.168;2022-10-17T04:55:55;7.40;99.90
10400;DHT22;10031;51.180;17.168;2022-10-17T04:58:21;7.50;99.90
10400;DHT22;10031;51.180;17.168;2022-10-17T05:00:47;7.50;99.90
10400;DHT22;10031;51.180;17.168;2022-10-17T05:05:39;7.60;99.90
10400;DHT22;10031;51.180;17.168;2022-10-17T05:08:06;7.60;99.90
10400;DHT22;10031;51.180;17.168;2022-10-17T05:10:41;7.60;99.90
10400;DHT22;10031;51.180;17.168;2022-10-17T05:15:34;7.70;99.90
10400;DHT22;10031;51.180;17.168;2022-10-17T05:18:04;7.60;99.90
10400;DHT22;10031;51.180;17.168;2022-10-17T05:22:59;7.50;99.90
10400;DHT22;10031;51.180;17.168;2022-10-17T05:27:52;7.50;99.90
10400;DHT22;10031;51.180;17.168;2022-10-17T05:37:40;7.70;99.90
10400;DHT22;10031;51.180;17.168;2022-10-17T05:40:06;7.60;99.90
10400;DHT22;10031;51.180;17.168;2022-10-17T05:42:32;7.90;99.90
10400;DHT22;10031;51.180;17.168;2022-10-17T05:44:58;7.90;99.90
10400;DHT22;10031;51.180;17.168;2022-10-17T05:52:20;7.80;99.90
10400;DHT22;10031;51.180;17.168;2022-10-17T05:59:51;7.80;99.90
10400;DHT22;10031;51.180;17.168;2022-10-17T06:02:20;7.80;99.90
10400;DHT22;10031;51.180;17.168;2022-10-17T06:09:40;8.10;99.90
10400;DHT22;10031;51.180;17.168;2022-10-17T06:14:35;8.40;99.90
10400;DHT22;10031;51.180;17.168;2022-10-17T06:17:01;8.60;99.90
10400;DHT22;10031;51.180;17.168;2022-10-17T06:22:00;8.60;99.90
10400;DHT22;10031;51.180;17.168;2022-10-17T06:24:29;8.70;99.90
10400;DHT22;10031;51.180;17.168;2022-10-17T06:34:16;9.60;99.90
10400;DHT22;10031;51.180;17.168;2022-10-17T06:39:08;10.60;99.90
10400;DHT22;10031;51.180;17.168;2022-10-17T06:41:38;11.40;99.90
10400;DHT22;10031;51.180;17.168;2022-10-17T06:44:06;11.70;99.90
10400;DHT22;10031;51.180;17.168;2022-10-17T06:46:39;11.80;99.90
10400;DHT22;10031;51.180;17.168;2022-10-17T06:49:06;12.10;99.90
10400;DHT22;10031;51.180;17.168;2022-10-17T06:51:36;12.30;99.90
10400;DHT22;10031;51.180;17.168;2022-10-17T06:54:02;14.40;99.90
10400;DHT22;10031;51.180;17.168;2022-10-17T06:56:28;12.60;99.90
10400;DHT22;10031;51.180;17.168;2022-10-17T06:58:57;12.70;99.90
10400;DHT22;10031;51.180;17.168;2022-10-17T07:01:23;12.90;99.90
10400;DHT22;10031;51.180;17.168;2022-10-17T07:03:53;12.90;99.90
10400;DHT22;10031;51.180;17.168;2022-10-17T07:06:18;13.10;99.90
10400;DHT22;10031;51.180;17.168;2022-10-17T07:08:51;13.40;99.90
10400;DHT22;10031;51.180;17.168;2022-10-17T07:11:20;13.60;99.90
10400;DHT22;10031;51.180;17.168;2022-10-17T07:13:47;13.90;99.90
10400;DHT22;10031;51.180;17.168;2022-10-17T07:16:16;14.20;99.90
10400;DHT22;10031;51.180;17.168;2022-10-17T07:18:42;14.50;99.90
10400;DHT22;10031;51.180;17.168;2022-10-17T07:21:13;14.80;99.90
10400;DHT22;10031;51.180;17.168;2022-10-17T07:23:39;15.00;99.90
10400;DHT22;10031;51.180;17.168;2022-10-17T07:26:09;15.10;99.90
10400;DHT22;10031;51.180;17.168;2022-10-17T07:28:39;15.20;99.90
10400;DHT22;10031;51.180;17.168;2022-10-17T07:31:14;15.40;99.90
10400;DHT22;10031;51.180;17.168;2022-10-17T07:33:41;15.50;99.90
10400;DHT22;10031;51.180;17.168;2022-10-17T07:36:11;15.90;99.90
10400;DHT22;10031;51.180;17.168;2022-10-17T07:38:38;16.00;99.90
10400;DHT22;10031;51.180;17.168;2022-10-17T07:43:32;16.50;99.90
10400;DHT22;10031;51.180;17.168;2022-10-17T07:46:00;16.60;99.90
10400;DHT22;10031;51.180;17.168;2022-10-17T07:48:26;16.60;99.90
10400;DHT22;10031;51.180;17.168;2022-10-17T07:50:52;16.70;99.90
10400;DHT22;10031;51.180;17.168;2022-10-17T07:55:45;16.70;99.90
10400;DHT22;10031;51.180;17.168;2022-10-17T07:58:16;16.60;99.90
10400;DHT22;10031;51.180;17.168;2022-10-17T08:00:42;16.60;99.90
10400;DHT22;10031;51.180;17.168;2022-10-17T08:05:39;16.80;99.90
10400;DHT22;10031;51.180;17.168;2022-10-17T08:10:32;16.90;99.90
10400;DHT22;10031;51.180;17.168;2022-10-17T08:12:57;16.90;99.90
10400;DHT22;10031;51.180;17.168;2022-10-17T08:15:24;16.70;99.90
10400;DHT22;10031;51.180;17.168;2022-10-17T08:17:51;16.80;99.90
10400;DHT22;10031;51.180;17.168;2022-10-17T08:20:21;17.00;99.90
10400;DHT22;10031;51.180;17.168;2022-10-17T08:22:51;17.00;99.90
10400;DHT22;10031;51.180;17.168;2022-10-17T08:25:18;17.10;99.90
10400;DHT22;10031;51.180;17.168;2022-10-17T08:27:44;17.00;99.90
10400;DHT22;10031;51.180;17.168;2022-10-17T08:30:12;17.30;99.90
10400;DHT22;10031;51.180;17.168;2022-10-17T08:32:38;17.20;99.90
10400;DHT22;10031;51.180;17.168;2022-10-17T08:35:07;17.30;99.90
10400;DHT22;10031;51.180;17.168;2022-10-17T08:37:33;17.40;99.90
10400;DHT22;10031;51.180;17.168;2022-10-17T08:39:59;17.60;99.90
10400;DHT22;10031;51.180;17.168;2022-10-17T08:42:55;17.80;99.90
10400;DHT22;10031;51.180;17.168;2022-10-17T08:48:01;18.00;99.90
10400;DHT22;10031;51.180;17.168;2022-10-17T08:50:43;18.00;99.90
10400;DHT22;10031;51.180;17.168;2022-10-17T08:53:30;18.20;99.90
10400;DHT22;10031;51.180;17.168;2022-10-17T08:56:04;18.20;99.90
10400;DHT22;10031;51.180;17.168;2022-10-17T08:58:32;18.30;99.90
10400;DHT22;10031;51.180;17.168;2022-10-17T09:06:38;18.50;99.90
10400;DHT22;10031;51.180;17.168;2022-10-17T09:09:19;18.50;99.90
10400;DHT22;10031;51.180;17.168;2022-10-17T09:19:35;18.90;99.90
10400;DHT22;10031;51.180;17.168;2022-10-17T09:22:05;18.90;99.90
10400;DHT22;10031;51.180;17.168;2022-10-17T09:24:41;19.10;99.90
10400;DHT22;10031;51.180;17.168;2022-10-17T09:27:24;19.20;99.90
10400;DHT22;10031;51.180;17.168;2022-10-17T09:29:57;19.30;99.90
10400;DHT22;10031;51.180;17.168;2022-10-17T09:32:27;19.40;99.90
10400;DHT22;10031;51.180;17.168;2022-10-17T09:37:24;19.40;99.90
10400;DHT22;10031;51.180;17.168;2022-10-17T09:39:54;19.40;99.90
10400;DHT22;10031;51.180;17.168;2022-10-17T09:42:22;19.60;99.90
10400;DHT22;10031;51.180;17.168;2022-10-17T09:45:02;19.60;99.90
10400;DHT22;10031;51.180;17.168;2022-10-17T09:47:41;19.50;99.90
10400;DHT22;10031;51.180;17.168;2022-10-17T09:50:27;19.80;99.90
10400;DHT22;10031;51.180;17.168;2022-10-17T09:52:55;19.70;99.90
10400;DHT22;10031;51.180;17.168;2022-10-17T09:55:29;19.70;99.90
10400;DHT22;10031;51.180;17.168;2022-10-17T09:58:02;19.80;99.90
10400;DHT22;10031;51.180;17.168;2022-10-17T10:03:11;19.90;99.90
10400;DHT22;10031;51.180;17.168;2022-10-17T10:05:38;20.00;99.90
10400;DHT22;10031;51.180;17.168;2022-10-17T10:08:15;20.00;99.90
10400;DHT22;10031;51.180;17.168;2022-10-17T10:15:47;20.30;99.90
10400;DHT22;10031;51.180;17.168;2022-10-17T10:18:30;20.30;99.90
10400;DHT22;10031;51.180;17.168;2022-10-17T10:21:16;20.30;99.90
10400;DHT22;10031;51.180;17.168;2022-10-17T10:23:45;20.50;99.90
10400;DHT22;10031;51.180;17.168;2022-10-17T10:26:26;20.50;99.90
10400;DHT22;10031;51.180;17.168;2022-10-17T10:29:27;20.60;99.90
10400;DHT22;10031;51.180;17.168;2022-10-17T10:32:14;20.80;99.90
10400;DHT22;10031;51.180;17.168;2022-10-17T10:35:02;20.70;99.90
10400;DHT22;10031;51.180;17.168;2022-10-17T10:37:38;20.90;99.90
10400;DHT22;10031;51.180;17.168;2022-10-17T10:40:19;20.90;99.90
10400;DHT22;10031;51.180;17.168;2022-10-17T10:42:49;20.90;99.90
10400;DHT22;10031;51.180;17.168;2022-10-17T10:48:26;21.00;99.90
10400;DHT22;10031;51.180;17.168;2022-10-17T10:50:56;21.10;99.90
10400;DHT22;10031;51.180;17.168;2022-10-17T10:53:42;21.10;99.90
10400;DHT22;10031;51.180;17.168;2022-10-17T10:56:19;21.20;99.90
10400;DHT22;10031;51.180;17.168;2022-10-17T10:58:57;21.20;99.90
10400;DHT22;10031;51.180;17.168;2022-10-17T11:04:41;21.40;99.90
10400;DHT22;10031;51.180;17.168;2022-10-17T11:07:22;21.50;99.90
10400;DHT22;10031;51.180;17.168;2022-10-17T11:15:29;21.80;99.90
10400;DHT22;10031;51.180;17.168;2022-10-17T11:23:29;21.80;99.90
10400;DHT22;10031;51.180;17.168;2022-10-17T11:26:00;21.80;99.90
10400;DHT22;10031;51.180;17.168;2022-10-17T11:28:28;21.80;99.90
10400;DHT22;10031;51.180;17.168;2022-10-17T11:30:59;21.90;99.90
10400;DHT22;10031;51.180;17.168;2022-10-17T11:36:26;22.00;99.90
10400;DHT22;10031;51.180;17.168;2022-10-17T11:39:03;22.10;99.90
10400;DHT22;10031;51.180;17.168;2022-10-17T11:41:55;22.20;99.90
10400;DHT22;10031;51.180;17.168;2022-10-17T11:44:33;22.40;99.90
10400;DHT22;10031;51.180;17.168;2022-10-17T11:47:27;22.80;99.90
10400;DHT22;10031;51.180;17.168;2022-10-17T11:53:15;22.80;99.90
10400;DHT22;10031;51.180;17.168;2022-10-17T11:55:42;22.90;99.90
10400;DHT22;10031;51.180;17.168;2022-10-17T12:01:14;23.50;99.90
10400;DHT22;10031;51.180;17.168;2022-10-17T12:12:27;23.30;99.90
10400;DHT22;10031;51.180;17.168;2022-10-17T12:15:25;23.30;99.90
10400;DHT22;10031;51.180;17.168;2022-10-17T12:18:07;23.50;99.90
10400;DHT22;10031;51.180;17.168;2022-10-17T12:20:32;23.60;99.90
10400;DHT22;10031;51.180;17.168;2022-10-17T12:25:49;23.60;99.90
10400;DHT22;10031;51.180;17.168;2022-10-17T12:49:39;24.80;99.90
10400;DHT22;10031;51.180;17.168;2022-10-17T12:55:06;24.70;99.90
10400;DHT22;10031;51.180;17.168;2022-10-17T13:02:38;24.80;99.90
10400;DHT22;10031;51.180;17.168;2022-10-17T13:05:10;24.70;99.90
10400;DHT22;10031;51.180;17.168;2022-10-17T13:07:40;25.00;99.90
10400;DHT22;10031;51.180;17.168;2022-10-17T13:10:19;25.10;99.90
10400;DHT22;10031;51.180;17.168;2022-10-17T13:12:46;25.40;99.90
10400;DHT22;10031;51.180;17.168;2022-10-17T13:15:17;25.30;99.90
10400;DHT22;10031;51.180;17.168;2022-10-17T13:17:43;25.30;99.90
10400;DHT22;10031;51.180;17.168;2022-10-17T13:20:24;25.30;99.90
10400;DHT22;10031;51.180;17.168;2022-10-17T13:22:53;25.10;99.90
10400;DHT22;10031;51.180;17.168;2022-10-17T13:25:23;23.10;99.90
10400;DHT22;10031;51.180;17.168;2022-10-17T13:28:04;25.30;99.90
10400;DHT22;10031;51.180;17.168;2022-10-17T13:30:35;25.50;99.90
10400;DHT22;10031;51.180;17.168;2022-10-17T13:33:02;25.90;99.90
10400;DHT22;10031;51.180;17.168;2022-10-17T13:35:33;26.20;99.90
10400;DHT22;10031;51.180;17.168;2022-10-17T13:38:01;25.80;99.90
10400;DHT22;10031;51.180;17.168;2022-10-17T13:40:41;25.80;99.90
10400;DHT22;10031;51.180;17.168;2022-10-17T13:43:24;25.90;99.90
10400;DHT22;10031;51.180;17.168;2022-10-17T13:45:57;25.70;99.90
10400;DHT22;10031;51.180;17.168;2022-10-17T13:48:27;26.20;99.90
10400;DHT22;10031;51.180;17.168;2022-10-17T13:50:58;26.10;99.90
10400;DHT22;10031;51.180;17.168;2022-10-17T13:53:33;26.10;99.90
10400;DHT22;10031;51.180;17.168;2022-10-17T13:58:42;26.10;99.90
10400;DHT22;10031;51.180;17.168;2022-10-17T14:01:11;26.30;99.90
10400;DHT22;10031;51.180;17.168;2022-10-17T14:03:42;26.30;99.90
10400;DHT22;10031;51.180;17.168;2022-10-17T14:09:04;26.80;99.90
10400;DHT22;10031;51.180;17.168;2022-10-17T14:14:06;27.20;99.90
10400;DHT22;10031;51.180;17.168;2022-10-17T14:16:40;27.00;99.90
10400;DHT22;10031;51.180;17.168;2022-10-17T14:19:27;26.80;99.90
10400;DHT22;10031;51.180;17.168;2022-10-17T14:22:13;26.50;99.90
10400;DHT22;10031;51.180;17.168;2022-10-17T14:24:43;26.70;99.90
10400;DHT22;10031;51.180;17.168;2022-10-17T14:30:28;25.90;99.90
10400;DHT22;10031;51.180;17.168;2022-10-17T14:32:58;26.00;99.90
10400;DHT22;10031;51.180;17.168;2022-10-17T14:35:28;24.90;99.90
10400;DHT22;10031;51.180;17.168;2022-10-17T14:38:00;24.80;99.90
10400;DHT22;10031;51.180;17.168;2022-10-17T14:40:28;24.50;99.90
10400;DHT22;10031;51.180;17.168;2022-10-17T14:43:05;24.60;99.90
10400;DHT22;10031;51.180;17.168;2022-10-17T14:45:36;24.00;99.90
10400;DHT22;10031;51.180;17.168;2022-10-17T14:48:14;24.00;99.90
10400;DHT22;10031;51.180;17.168;2022-10-17T14:51:12;23.40;99.90
10400;DHT22;10031;51.180;17.168;2022-10-17T14:53:40;23.90;99.90
10400;DHT22;10031;51.180;17.168;2022-10-17T14:56:24;23.60;99.90
10400;DHT22;10031;51.180;17.168;2022-10-17T14:58:50;23.30;99.90
10400;DHT22;10031;51.180;17.168;2022-10-17T15:01:19;23.00;99.90
10400;DHT22;10031;51.180;17.168;2022-10-17T15:03:44;23.00;99.90
10400;DHT22;10031;51.180;17.168;2022-10-17T15:06:28;22.80;99.90
10400;DHT22;10031;51.180;17.168;2022-10-17T15:08:55;22.70;99.90
10400;DHT22;10031;51.180;17.168;2022-10-17T15:11:21;22.40;99.90
10400;DHT22;10031;51.180;17.168;2022-10-17T15:13:46;22.20;99.90
10400;DHT22;10031;51.180;17.168;2022-10-17T15:16:38;22.20;99.90
10400;DHT22;10031;51.180;17.168;2022-10-17T15:19:04;22.10;99.90
10400;DHT22;10031;51.180;17.168;2022-10-17T15:21:32;22.10;99.90
10400;DHT22;10031;51.180;17.168;2022-10-17T15:24:01;21.90;99.90
10400;DHT22;10031;51.180;17.168;2022-10-17T15:26:30;21.90;99.90
10400;DHT22;10031;51.180;17.168;2022-10-17T15:28:56;21.70;99.90
10400;DHT22;10031;51.180;17.168;2022-10-17T15:31:24;21.40;99.90
10400;DHT22;10031;51.180;17.168;2022-10-17T15:33:51;21.60;99.90
10400;DHT22;10031;51.180;17.168;2022-10-17T15:36:25;21.30;99.90
10400;DHT22;10031;51.180;17.168;2022-10-17T15:38:54;21.10;99.90
10400;DHT22;10031;51.180;17.168;2022-10-17T15:41:21;21.10;99.90
10400;DHT22;10031;51.180;17.168;2022-10-17T15:43:48;20.70;99.90
10400;DHT22;10031;51.180;17.168;2022-10-17T15:46:17;20.70;99.90
10400;DHT22;10031;51.180;17.168;2022-10-17T15:48:43;20.40;99.90
10400;DHT22;10031;51.180;17.168;2022-10-17T15:51:09;19.90;99.90
10400;DHT22;10031;51.180;17.168;2022-10-17T15:53:35;19.80;99.90
10400;DHT22;10031;51.180;17.168;2022-10-17T15:58:35;19.60;99.90
10400;DHT22;10031;51.180;17.168;2022-10-17T16:01:02;19.50;99.90
10400;DHT22;10031;51.180;17.168;2022-10-17T16:03:28;19.30;99.90
10400;DHT22;10031;51.180;17.168;2022-10-17T16:08:21;19.20;99.90
10400;DHT22;10031;51.180;17.168;2022-10-17T16:13:22;18.90;99.90
10400;DHT22;10031;51.180;17.168;2022-10-17T16:15:48;18.30;99.90
10400;DHT22;10031;51.180;17.168;2022-10-17T16:20:40;18.20;99.90
10400;DHT22;10031;51.180;17.168;2022-10-17T16:25:33;17.80;99.90
10400;DHT22;10031;51.180;17.168;2022-10-17T16:28:00;19.80;99.90
10400;DHT22;10031;51.180;17.168;2022-10-17T16:30:27;17.70;99.90
10400;DHT22;10031;51.180;17.168;2022-10-17T16:32:53;17.60;99.90
10400;DHT22;10031;51.180;17.168;2022-10-17T16:35:22;17.50;99.90
10400;DHT22;10031;51.180;17.168;2022-10-17T16:40:15;17.40;99.90
10400;DHT22;10031;51.180;17.168;2022-10-17T16:45:13;16.80;99.90
10400;DHT22;10031;51.180;17.168;2022-10-17T16:47:39;16.20;99.90
10400;DHT22;10031;51.180;17.168;2022-10-17T16:52:31;15.50;99.90
10400;DHT22;10031;51.180;17.168;2022-10-17T16:57:23;15.50;99.90
10400;DHT22;10031;51.180;17.168;2022-10-17T17:07:08;15.60;99.90
10400;DHT22;10031;51.180;17.168;2022-10-17T17:12:00;14.90;99.90
10400;DHT22;10031;51.180;17.168;2022-10-17T17:16:52;14.60;99.90
10400;DHT22;10031;51.180;17.168;2022-10-17T17:21:45;14.50;99.90
10400;DHT22;10031;51.180;17.168;2022-10-17T17:24:16;14.60;99.90
10400;DHT22;10031;51.180;17.168;2022-10-17T17:26:43;14.30;99.90
10400;DHT22;10031;51.180;17.168;2022-10-17T17:29:09;14.40;99.90
10400;DHT22;10031;51.180;17.168;2022-10-17T17:34:04;14.10;99.90
10400;DHT22;10031;51.180;17.168;2022-10-17T17:36:34;14.10;99.90
10400;DHT22;10031;51.180;17.168;2022-10-17T17:39:01;14.20;99.90
10400;DHT22;10031;51.180;17.168;2022-10-17T17:41:28;14.10;99.90
10400;DHT22;10031;51.180;17.168;2022-10-17T17:46:21;14.10;99.90
10400;DHT22;10031;51.180;17.168;2022-10-17T17:48:53;14.10;99.90
10400;DHT22;10031;51.180;17.168;2022-10-17T17:54:06;14.40;99.90
10400;DHT22;10031;51.180;17.168;2022-10-17T17:56:35;14.90;99.90
10400;DHT22;10031;51.180;17.168;2022-10-17T17:59:02;14.80;99.90
10400;DHT22;10031;51.180;17.168;2022-10-17T18:01:30;15.10;99.90
10400;DHT22;10031;51.180;17.168;2022-10-17T18:03:57;15.20;99.90
10400;DHT22;10031;51.180;17.168;2022-10-17T18:08:52;15.40;99.90
10400;DHT22;10031;51.180;17.168;2022-10-17T18:11:18;15.40;99.90
10400;DHT22;10031;51.180;17.168;2022-10-17T18:16:11;15.90;99.90
10400;DHT22;10031;51.180;17.168;2022-10-17T18:18:44;15.90;99.90
10400;DHT22;10031;51.180;17.168;2022-10-17T18:21:11;15.90;99.90
10400;DHT22;10031;51.180;17.168;2022-10-17T18:23:40;15.70;99.90
10400;DHT22;10031;51.180;17.168;2022-10-17T18:26:06;15.80;99.90
10400;DHT22;10031;51.180;17.168;2022-10-17T18:28:33;15.90;99.90
10400;DHT22;10031;51.180;17.168;2022-10-17T18:31:13;15.90;99.90
10400;DHT22;10031;51.180;17.168;2022-10-17T18:33:40;15.80;99.90
10400;DHT22;10031;51.180;17.168;2022-10-17T18:36:09;15.70;99.90
10400;DHT22;10031;51.180;17.168;2022-10-17T18:38:38;15.90;99.90
10400;DHT22;10031;51.180;17.168;2022-10-17T18:41:15;16.10;99.90
10400;DHT22;10031;51.180;17.168;2022-10-17T18:46:14;16.10;99.90
10400;DHT22;10031;51.180;17.168;2022-10-17T18:48:42;16.20;99.90
10400;DHT22;10031;51.180;17.168;2022-10-17T18:53:56;16.20;99.90
10400;DHT22;10031;51.180;17.168;2022-10-17T18:56:23;16.40;99.90
10400;DHT22;10031;51.180;17.168;2022-10-17T19:01:18;16.40;99.90
10400;DHT22;10031;51.180;17.168;2022-10-17T19:03:46;16.50;99.90
10400;DHT22;10031;51.180;17.168;2022-10-17T19:06:15;16.40;99.90
10400;DHT22;10031;51.180;17.168;2022-10-17T19:08:42;16.40;99.90
10400;DHT22;10031;51.180;17.168;2022-10-17T19:11:13;16.20;99.90
10400;DHT22;10031;51.180;17.168;2022-10-17T19:13:39;16.20;99.90
10400;DHT22;10031;51.180;17.168;2022-10-17T19:16:11;16.20;99.90
10400;DHT22;10031;51.180;17.168;2022-10-17T19:18:37;16.10;99.90
10400;DHT22;10031;51.180;17.168;2022-10-17T19:23:34;16.00;99.90
10400;DHT22;10031;51.180;17.168;2022-10-17T19:26:09;16.00;99.90
10400;DHT22;10031;51.180;17.168;2022-10-17T19:28:37;15.80;99.90
10400;DHT22;10031;51.180;17.168;2022-10-17T19:33:31;15.90;99.90
10400;DHT22;10031;51.180;17.168;2022-10-17T19:36:03;15.80;99.90
10400;DHT22;10031;51.180;17.168;2022-10-17T19:38:30;15.60;99.90
10400;DHT22;10031;51.180;17.168;2022-10-17T19:43:22;15.90;99.90
10400;DHT22;10031;51.180;17.168;2022-10-17T19:45:56;15.90;99.90
10400;DHT22;10031;51.180;17.168;2022-10-17T19:48:23;15.80;99.90
10400;DHT22;10031;51.180;17.168;2022-10-17T19:50:49;15.60;99.90
10400;DHT22;10031;51.180;17.168;2022-10-17T19:53:16;15.40;99.90
10400;DHT22;10031;51.180;17.168;2022-10-17T19:55:42;15.40;99.90
10400;DHT22;10031;51.180;17.168;2022-10-17T19:58:08;15.10;99.90
10400;DHT22;10031;51.180;17.168;2022-10-17T20:00:34;15.10;99.90
10400;DHT22;10031;51.180;17.168;2022-10-17T20:05:27;15.10;99.90
10400;DHT22;10031;51.180;17.168;2022-10-17T20:07:53;15.00;99.90
10400;DHT22;10031;51.180;17.168;2022-10-17T20:10:20;14.70;99.90
10400;DHT22;10031;51.180;17.168;2022-10-17T20:15:13;14.70;99.90
10400;DHT22;10031;51.180;17.168;2022-10-17T20:20:07;14.50;99.90
10400;DHT22;10031;51.180;17.168;2022-10-17T20:22:34;14.30;99.90
10400;DHT22;10031;51.180;17.168;2022-10-17T20:27:26;14.30;99.90
10400;DHT22;10031;51.180;17.168;2022-10-17T20:29:52;14.40;99.90
10400;DHT22;10031;51.180;17.168;2022-10-17T20:34:44;14.60;99.90
10400;DHT22;10031;51.180;17.168;2022-10-17T20:39:36;14.60;99.90
10400;DHT22;10031;51.180;17.168;2022-10-17T20:42:02;14.80;99.90
10400;DHT22;10031;51.180;17.168;2022-10-17T20:51:51;15.00;99.90
10400;DHT22;10031;51.180;17.168;2022-10-17T20:59:14;14.50;99.90
10400;DHT22;10031;51.180;17.168;2022-10-17T21:01:41;14.50;99.90
10400;DHT22;10031;51.180;17.168;2022-10-17T21:04:07;14.30;99.90
10400;DHT22;10031;51.180;17.168;2022-10-17T21:06:33;14.30;99.90
10400;DHT22;10031;51.180;17.168;2022-10-17T21:09:01;14.20;99.90
10400;DHT22;10031;51.180;17.168;2022-10-17T21:14:02;14.10;99.90
10400;DHT22;10031;51.180;17.168;2022-10-17T21:18:55;14.00;99.90
10400;DHT22;10031;51.180;17.168;2022-10-17T21:21:24;13.90;99.90
10400;DHT22;10031;51.180;17.168;2022-10-17T21:23:53;13.90;99.90
10400;DHT22;10031;51.180;17.168;2022-10-17T21:31:39;13.60;99.90
10400;DHT22;10031;51.180;17.168;2022-10-17T21:34:11;13.50;99.90
10400;DHT22;10031;51.180;17.168;2022-10-17T21:39:03;13.30;99.90
10400;DHT22;10031;51.180;17.168;2022-10-17T21:44:01;13.20;99.90
10400;DHT22;10031;51.180;17.168;2022-10-17T21:46:27;13.20;99.90
10400;DHT22;10031;51.180;17.168;2022-10-17T21:51:21;12.90;99.90